createdAt,value
2022-08-03T00:01:43.128Z,100.00
2022-08-03T00:04:10.944Z,100.00
2022-08-03T00:06:40.361Z,100.00
2022-08-03T00:09:07.592Z,100.00
2022-08-03T00:11:34.488Z,100.00
2022-08-03T00:14:01.295Z,100.00
2022-08-03T00:16:28.120Z,100.00
2022-08-03T00:18:54.740Z,100.00
2022-08-03T00:21:21.550Z,100.00
2022-08-03T00:23:51.277Z,100.00
2022-08-03T00:26:21.270Z,100.00
2022-08-03T00:28:48.580Z,100.00
2022-08-03T00:31:15.672Z,100.00
2022-08-03T00:33:59.023Z,100.00
2022-08-03T00:36:27.273Z,100.00
2022-08-03T00:38:55.020Z,100.00
2022-08-03T00:41:21.999Z,100.00
2022-08-03T00:43:48.647Z,100.00
2022-08-03T00:46:19.194Z,100.00
2022-08-03T00:48:53.241Z,100.00
2022-08-03T00:51:21.079Z,100.00
2022-08-03T00:53:48.772Z,100.00
2022-08-03T00:56:16.016Z,100.00
2022-08-03T00:58:46.474Z,100.00
2022-08-03T01:01:14.375Z,100.00
2022-08-03T01:03:41.355Z,100.00
2022-08-03T01:06:23.123Z,100.00
2022-08-03T01:09:03.351Z,100.00
2022-08-03T01:12:01.193Z,100.00
2022-08-03T01:14:37.905Z,100.00
2022-08-03T01:17:11.870Z,100.00
2022-08-03T01:19:56.124Z,100.00
2022-08-03T01:22:50.338Z,100.00
2022-08-03T01:25:33.579Z,100.00
2022-08-03T01:28:22.817Z,100.00
2022-08-03T01:30:52.879Z,100.00
2022-08-03T01:33:27.815Z,100.00
2022-08-03T01:36:00.272Z,100.00
2022-08-03T01:38:31.885Z,100.00
2022-08-03T01:41:07.014Z,100.00
2022-08-03T01:44:28.173Z,100.00
2022-08-03T01:46:25.097Z,100.00
2022-08-03T01:48:54.253Z,100.00
2022-08-03T01:51:22.791Z,100.00
2022-08-03T01:53:54.310Z,100.00
2022-08-03T01:56:24.188Z,100.00
2022-08-03T01:58:53.128Z,100.00
2022-08-03T02:01:22.159Z,100.00
2022-08-03T02:03:59.930Z,100.00
2022-08-03T02:07:01.223Z,100.00
2022-08-03T02:09:20.550Z,100.00
2022-08-03T02:11:48.912Z,100.00
2022-08-03T02:14:16.617Z,100.00
2022-08-03T02:16:45.424Z,100.00
2022-08-03T02:19:13.242Z,100.00
2022-08-03T02:21:56.426Z,100.00
2022-08-03T02:24:29.307Z,100.00
2022-08-03T02:26:56.997Z,100.00
2022-08-03T02:29:39.213Z,100.00
2022-08-03T02:32:17.339Z,100.00
2022-08-03T02:34:47.109Z,100.00
2022-08-03T02:37:17.570Z,100.00
2022-08-03T02:39:46.300Z,100.00
2022-08-03T02:42:15.882Z,100.00
2022-08-03T02:44:47.928Z,100.00
2022-08-03T02:47:16.509Z,100.00
2022-08-03T02:49:50.849Z,100.00
2022-08-03T02:52:24.930Z,100.00
2022-08-03T02:54:54.427Z,100.00
2022-08-03T02:57:22.656Z,100.00
2022-08-03T02:59:50.028Z,100.00
2022-08-03T03:02:18.079Z,100.00
2022-08-03T03:05:53.693Z,100.00
2022-08-03T03:07:52.231Z,100.00
2022-08-03T03:10:25.259Z,100.00
2022-08-03T03:12:55.823Z,100.00
2022-08-03T03:15:25.465Z,100.00
2022-08-03T03:17:53.047Z,100.00
2022-08-03T03:20:29.017Z,100.00
2022-08-03T03:23:00.934Z,100.00
2022-08-03T03:25:31.121Z,100.00
2022-08-03T03:28:02.325Z,100.00
2022-08-03T03:30:29.781Z,100.00
2022-08-03T03:32:58.621Z,100.00
2022-08-03T03:35:27.138Z,100.00
2022-08-03T03:37:54.118Z,100.00
2022-08-03T03:40:21.768Z,100.00
2022-08-03T03:42:49.360Z,100.00
2022-08-03T03:45:16.563Z,100.00
2022-08-03T03:47:43.603Z,100.00
2022-08-03T03:50:10.405Z,100.00
2022-08-03T03:52:37.316Z,100.00
2022-08-03T03:55:04.658Z,100.00
2022-08-03T03:57:31.422Z,100.00
2022-08-03T03:59:58.293Z,100.00
2022-08-03T04:02:25.250Z,100.00
2022-08-03T04:05:10.692Z,100.00
2022-08-03T04:08:18.441Z,100.00
2022-08-03T04:11:06.868Z,100.00
2022-08-03T04:13:38.352Z,100.00
2022-08-03T04:16:10.064Z,100.00
2022-08-03T04:18:40.131Z,100.00
2022-08-03T04:21:10.958Z,100.00
2022-08-03T04:23:40.919Z,100.00
2022-08-03T04:26:11.335Z,100.00
2022-08-03T04:28:44.140Z,100.00
2022-08-03T04:31:13.003Z,100.00
2022-08-03T04:33:43.285Z,100.00
2022-08-03T04:36:15.447Z,100.00
2022-08-03T04:39:14.149Z,100.00
2022-08-03T04:42:07.065Z,100.00
2022-08-03T04:44:35.151Z,100.00
2022-08-03T04:47:02.151Z,100.00
2022-08-03T04:49:30.215Z,100.00
2022-08-03T04:51:58.052Z,100.00
2022-08-03T04:54:24.938Z,100.00
2022-08-03T04:56:52.579Z,100.00
2022-08-03T04:59:19.979Z,100.00
2022-08-03T05:01:47.680Z,100.00
2022-08-03T05:04:14.573Z,100.00
2022-08-03T05:06:48.411Z,100.00
2022-08-03T05:09:39.564Z,100.00
2022-08-03T05:12:09.714Z,100.00
2022-08-03T05:14:38.305Z,100.00
2022-08-03T05:17:05.761Z,99.34
2022-08-03T05:19:32.974Z,94.96
2022-08-03T05:22:00.074Z,95.29
2022-08-03T05:24:27.329Z,94.37
2022-08-03T05:26:54.115Z,91.71
2022-08-03T05:29:21.255Z,92.00
2022-08-03T05:31:48.064Z,91.96
2022-08-03T05:34:14.947Z,89.95
2022-08-03T05:36:41.794Z,88.24
2022-08-03T05:39:10.500Z,88.68
2022-08-03T05:41:41.593Z,88.52
2022-08-03T05:44:08.611Z,86.83
2022-08-03T05:46:36.484Z,87.68
2022-08-03T05:49:04.104Z,88.01
2022-08-03T06:05:16.283Z,92.86
2022-08-03T06:09:05.317Z,89.92
2022-08-03T06:12:53.643Z,90.03
2022-08-03T06:16:35.873Z,88.75
2022-08-03T06:20:10.294Z,87.72
2022-08-03T06:23:52.879Z,85.09
2022-08-03T06:27:00.565Z,81.59
2022-08-03T06:30:49.773Z,80.27
2022-08-03T06:34:38.755Z,76.82
2022-08-03T06:38:27.066Z,75.07
2022-08-03T06:42:16.392Z,73.72
2022-08-03T06:45:24.700Z,71.78
2022-08-03T06:49:13.692Z,69.68
2022-08-03T06:53:02.823Z,69.87
2022-08-03T06:56:51.700Z,68.89
2022-08-03T07:00:40.645Z,68.55
2022-08-03T07:04:28.457Z,67.31
2022-08-03T07:08:17.459Z,66.87
2022-08-03T07:12:22.625Z,68.00
2022-08-03T07:16:11.628Z,66.71
2022-08-03T07:19:13.960Z,67.96
2022-08-03T07:23:02.155Z,67.64
2022-08-03T07:26:21.844Z,62.29
2022-08-03T07:29:54.690Z,57.20
2022-08-03T07:33:28.644Z,52.66
2022-08-03T07:37:17.473Z,50.00
2022-08-03T07:40:55.746Z,48.80
2022-08-03T07:44:00.529Z,47.58
2022-08-03T07:46:58.070Z,46.52
2022-08-03T07:50:47.586Z,46.17
2022-08-03T07:54:10.980Z,47.12
2022-08-03T07:57:52.656Z,45.97
2022-08-03T08:01:41.744Z,44.96
2022-08-03T08:05:10.898Z,44.54
2022-08-03T08:08:41.475Z,44.02
2022-08-03T08:12:23.797Z,43.63
2022-08-03T08:15:56.306Z,44.68
2022-08-03T08:19:16.985Z,43.35
2022-08-03T08:23:02.787Z,42.40
2022-08-03T08:26:52.555Z,41.60
2022-08-03T08:30:41.822Z,41.28
2022-08-03T08:34:12.259Z,40.66
2022-08-03T08:37:51.106Z,41.48
2022-08-03T08:41:40.559Z,42.39
2022-08-03T08:45:27.855Z,41.90
2022-08-03T08:49:16.837Z,43.44
2022-08-03T08:53:06.340Z,41.36
2022-08-03T08:56:53.296Z,40.55
2022-08-03T09:00:42.537Z,40.29
2022-08-03T09:04:32.264Z,39.28
2022-08-03T09:08:21.261Z,39.84
2022-08-03T09:12:37.585Z,40.15
2022-08-03T09:16:27.358Z,40.08
2022-08-03T09:20:13.416Z,39.10
2022-08-03T09:24:04.393Z,39.86
2022-08-03T09:27:55.058Z,39.29
2022-08-03T09:31:45.899Z,38.31
2022-08-03T09:39:48.453Z,37.71
2022-08-03T09:43:38.280Z,37.80
2022-08-03T09:47:33.917Z,37.73
2022-08-03T09:52:32.530Z,36.84
2022-08-03T09:56:33.346Z,37.22
2022-08-03T09:59:53.905Z,36.76
2022-08-03T10:04:03.124Z,35.67
2022-08-03T10:08:02.332Z,35.31
2022-08-03T10:11:51.675Z,37.37
2022-08-03T10:16:22.593Z,34.70
2022-08-03T10:19:50.604Z,34.26
2022-08-03T10:23:39.832Z,32.37
2022-08-03T10:27:29.160Z,34.07
2022-08-03T10:31:19.303Z,33.03
2022-08-03T10:35:00.152Z,32.10
2022-08-03T10:38:58.766Z,32.78
2022-08-03T10:42:36.182Z,34.37
2022-08-03T10:46:26.110Z,34.09
2022-08-03T10:50:18.260Z,33.22
2022-08-03T10:54:16.270Z,32.40
2022-08-03T10:57:59.198Z,32.72
2022-08-03T11:02:00.304Z,33.11
2022-08-03T11:06:08.175Z,32.57
2022-08-03T11:10:12.388Z,32.80
2022-08-03T11:14:07.682Z,31.58
2022-08-03T11:18:11.109Z,32.16
2022-08-03T11:22:01.191Z,31.10
2022-08-03T11:25:55.021Z,32.37
2022-08-03T11:30:03.102Z,32.44
2022-08-03T11:33:52.575Z,32.88
2022-08-03T11:37:38.712Z,31.93
2022-08-03T11:41:54.776Z,32.54
2022-08-03T11:45:44.429Z,31.30
2022-08-03T11:49:36.572Z,30.56
2022-08-03T11:53:25.640Z,29.67
2022-08-03T11:59:00.850Z,30.81
2022-08-03T12:01:39.779Z,31.72
2022-08-03T12:05:35.338Z,32.25
2022-08-03T12:09:27.300Z,30.71
2022-08-03T12:14:44.122Z,30.06
2022-08-03T12:17:28.910Z,30.91
2022-08-03T12:21:18.521Z,31.03
2022-08-03T12:25:07.940Z,31.48
2022-08-03T12:28:44.958Z,30.78
2022-08-03T12:32:19.422Z,33.34
2022-08-03T12:36:08.793Z,34.04
2022-08-03T12:40:02.528Z,34.61
2022-08-03T12:43:55.789Z,32.80
2022-08-03T12:47:45.114Z,34.08
2022-08-03T12:51:34.175Z,33.99
2022-08-03T12:55:16.934Z,34.76
2022-08-03T12:59:11.907Z,34.56
2022-08-03T13:03:38.292Z,34.66
2022-08-03T13:07:14.783Z,33.73
2022-08-03T13:11:00.776Z,33.04
2022-08-03T13:14:38.804Z,32.23
2022-08-03T13:18:28.438Z,31.59
2022-08-03T13:22:17.412Z,31.14
2022-08-03T13:25:55.772Z,31.27
2022-08-03T13:29:45.108Z,32.49
2022-08-03T13:33:27.087Z,32.89
2022-08-03T13:37:16.271Z,32.41
2022-08-03T13:41:04.858Z,31.02
2022-08-03T13:44:55.148Z,31.09
2022-08-03T13:48:47.211Z,30.33
2022-08-03T13:52:36.601Z,31.75
2022-08-03T13:56:07.191Z,31.60
2022-08-03T13:59:55.593Z,31.09
2022-08-03T14:03:45.338Z,30.67
2022-08-03T14:07:36.760Z,30.80
2022-08-03T14:11:25.862Z,31.11
2022-08-03T14:15:38.153Z,30.48
2022-08-03T14:19:16.366Z,30.10
2022-08-03T14:23:14.504Z,30.28
2022-08-03T14:27:09.070Z,31.32
2022-08-03T14:30:58.663Z,31.11
2022-08-03T14:34:47.333Z,31.07
2022-08-03T14:38:37.977Z,30.55
2022-08-03T14:42:27.845Z,30.94
2022-08-03T14:46:17.874Z,31.14
2022-08-03T14:50:38.829Z,31.03
2022-08-03T14:54:17.895Z,30.81
2022-08-03T14:58:20.027Z,31.02
2022-08-03T15:02:19.808Z,31.92
2022-08-03T15:06:13.409Z,31.43
2022-08-03T15:10:03.209Z,31.79
2022-08-03T15:13:52.608Z,30.48
2022-08-03T15:17:42.866Z,31.43
2022-08-03T15:21:47.216Z,31.76
2022-08-03T15:26:04.089Z,30.98
2022-08-03T15:30:06.716Z,31.73
2022-08-03T15:33:55.293Z,32.25
2022-08-03T15:37:44.752Z,32.02
2022-08-03T15:41:34.382Z,31.92
2022-08-03T15:45:17.763Z,32.57
2022-08-03T15:48:47.296Z,31.88
2022-08-03T15:52:09.477Z,32.54
2022-08-03T15:55:58.763Z,32.16
2022-08-03T15:59:48.101Z,32.11
2022-08-03T16:03:36.626Z,32.44
2022-08-03T16:07:15.815Z,32.36
2022-08-03T16:11:07.813Z,33.43
2022-08-03T16:14:52.685Z,32.41
2022-08-03T16:17:51.486Z,33.27
2022-08-03T16:21:06.263Z,32.72
2022-08-03T16:25:03.526Z,33.51
2022-08-03T16:28:52.819Z,34.49
2022-08-03T16:31:51.221Z,34.16
2022-08-03T16:35:32.780Z,33.71
2022-08-03T16:39:22.801Z,34.07
2022-08-03T16:43:18.108Z,33.85
2022-08-03T16:47:00.044Z,34.15
2022-08-03T16:50:50.141Z,33.97
2022-08-03T16:54:39.530Z,34.05
2022-08-03T16:58:41.368Z,34.34
2022-08-03T17:02:32.669Z,34.57
2022-08-03T17:06:22.408Z,34.49
2022-08-03T17:10:14.297Z,34.37
2022-08-03T17:14:10.033Z,34.43
2022-08-03T17:21:32.855Z,35.31
2022-08-03T17:25:51.400Z,34.80
2022-08-03T17:29:48.658Z,35.89
2022-08-03T17:33:39.205Z,37.25
2022-08-03T17:37:57.830Z,37.68
2022-08-03T17:41:38.776Z,38.02
2022-08-03T17:45:52.139Z,38.59
2022-08-03T17:49:42.414Z,39.51
2022-08-03T17:53:32.540Z,39.87
2022-08-03T17:57:22.396Z,40.60
2022-08-03T18:02:01.965Z,41.30
2022-08-03T18:06:10.707Z,41.88
2022-08-03T18:10:06.657Z,41.70
2022-08-03T18:13:39.695Z,41.78
2022-08-03T18:17:55.697Z,42.04
2022-08-03T18:22:03.107Z,42.99
2022-08-03T18:25:57.930Z,43.51
2022-08-03T18:29:40.459Z,43.91
2022-08-03T18:34:18.877Z,44.87
2022-08-03T18:36:18.033Z,46.09
2022-08-03T18:39:49.816Z,46.92
2022-08-03T18:43:22.813Z,48.83
2022-08-03T18:47:52.269Z,49.94
2022-08-03T18:51:50.745Z,51.55
2022-08-03T18:56:01.870Z,54.30
2022-08-03T18:59:54.589Z,55.19
2022-08-03T19:03:48.287Z,55.84
2022-08-03T19:07:44.245Z,57.57
2022-08-03T19:12:12.740Z,58.43
2022-08-03T19:15:57.631Z,59.05
2022-08-03T19:19:49.541Z,60.79
2022-08-03T19:23:38.976Z,62.33
2022-08-03T19:27:30.478Z,62.77
2022-08-03T19:35:19.032Z,62.98
2022-08-03T19:39:20.550Z,65.62
2022-08-03T19:43:12.175Z,66.59
2022-08-03T19:47:00.083Z,73.35
2022-08-03T19:50:50.218Z,72.77
2022-08-03T19:54:45.666Z,72.22
2022-08-03T19:58:43.735Z,73.77
2022-08-03T20:02:35.739Z,76.01
2022-08-03T20:05:51.897Z,75.12
2022-08-03T20:09:44.584Z,74.44
2022-08-03T20:13:39.067Z,76.61
2022-08-03T20:17:55.500Z,80.38
2022-08-03T20:21:42.124Z,81.36
2022-08-03T20:25:38.112Z,80.96
2022-08-03T20:30:05.445Z,82.69
2022-08-03T20:33:51.048Z,82.63
2022-08-03T20:37:40.443Z,82.78
2022-08-03T20:41:31.848Z,83.86
2022-08-03T20:46:00.390Z,84.67
2022-08-03T20:49:45.534Z,82.36
2022-08-03T20:54:00.126Z,85.00
2022-08-03T20:57:49.214Z,84.48
2022-08-03T21:01:44.828Z,87.37
2022-08-03T21:05:51.363Z,90.73
2022-08-03T21:09:44.117Z,89.24
2022-08-03T21:13:13.133Z,63.33
2022-08-03T21:13:39.926Z,88.40
2022-08-03T21:17:40.565Z,91.15
2022-08-03T21:21:31.632Z,91.84
2022-08-03T21:25:21.275Z,92.00
2022-08-03T21:29:11.038Z,96.00
2022-08-03T21:33:00.636Z,96.11
2022-08-03T21:36:50.099Z,94.10
2022-08-03T21:40:40.861Z,92.92
2022-08-03T21:44:31.486Z,93.57
2022-08-03T21:48:24.045Z,94.25
2022-08-03T21:52:13.451Z,93.99
2022-08-03T21:56:05.892Z,95.78
2022-08-03T21:59:54.930Z,97.36
2022-08-03T22:03:53.004Z,98.44
2022-08-03T22:07:25.709Z,98.15
2022-08-03T22:11:15.022Z,96.26
2022-08-03T22:15:04.172Z,95.56
2022-08-03T22:22:54.962Z,98.93
2022-08-03T22:26:45.062Z,100.00
2022-08-03T22:30:34.009Z,100.00
2022-08-03T22:34:24.434Z,100.00
2022-08-03T22:38:00.298Z,100.00
2022-08-03T22:41:49.172Z,100.00
2022-08-03T22:46:07.428Z,100.00
2022-08-03T22:49:29.963Z,100.00
2022-08-03T22:53:18.997Z,100.00
2022-08-03T22:57:07.981Z,100.00
2022-08-03T23:00:57.145Z,100.00
2022-08-03T23:04:46.062Z,100.00
2022-08-03T23:08:34.947Z,100.00
2022-08-03T23:12:23.810Z,97.97
2022-08-03T23:16:12.738Z,96.45
2022-08-03T23:20:01.609Z,97.07
2022-08-03T23:23:50.498Z,99.57
2022-08-03T23:27:39.309Z,100.00
2022-08-03T23:31:28.090Z,100.00
2022-08-03T23:35:15.632Z,100.00
2022-08-03T23:39:05.115Z,100.00
2022-08-03T23:42:53.974Z,100.00
2022-08-03T23:46:42.813Z,100.00
2022-08-03T23:50:31.715Z,100.00
2022-08-03T23:54:29.280Z,100.00
2022-08-03T23:58:23.895Z,100.00
